Del Rio, TX

3:44 AM CDT on September 16, 2014 (GMT -0500)
Del Rio Laughlin AFB | Change Station
CLOSE
Current Station
Airport
Location: Del Rio Laughlin AFB,
Elevation: 1083 ft
Nearby Weather Stations

Elev 1083 ft 29.36 °N, 100.78 °W | Updated 46 minutes ago

Mostly Cloudy
Mostly Cloudy
72 °F
Feels Like 72 °F
N
6
Wind Variable Wind from ENE

Today
High -- | Low -- °F
--% Chance of Precip.
Yesterday
High -- | Low -- °F
Precip. -- in
7:28 AM 7:47 PM
Waning Gibbous, 47% visible
Pressure 30.06 in
Visibility 10.0 miles
Clouds Overcast 17000 ft
Dew Point 70 °F
Humidity 96%
Rainfall 0.00 in
Snow Depth Not available.
UV 0 out of 12
Pollen 9.20 out of 12
Air Quality Not available.
Flu Activity Not available.
METAR KDLF 160758Z AUTO 06005KT 10SM OVC170 22/21 A3009 RMK AO2 SLP177 T02210214 $

More Conditions Fewer Conditions

Pressure 30.06 in
Visibility 10.0 miles
Clouds Overcast 17000 ft
Dew Point 70 °F
Humidity 96%
Rainfall 0.00 in
Snow Depth Not available.
UV 0 out of 12
Pollen 9.20 out of 12
Air Quality Not available.
Flu Activity Not available.
METAR KDLF 160758Z AUTO 06005KT 10SM OVC170 22/21 A3009 RMK AO2 SLP177 T02210214 $

More Conditions Fewer Conditions

10-Day Weather Forecast

Almanac

Astronomy

Sep. 16, 2014 Rise Set
Actual Time 7:28 AM CDT 7:47 PM CDT
Civil Twilight 7:04 AM CDT 8:11 PM CDT
Nautical Twilight 6:37 AM CDT 8:38 PM CDT
Astronomical Twilight 6:08 AM CDT 9:07 PM CDT
Moon 12:59 AM CDT 2:53 PM CDT
Length of Visible Light 13h 06m
Length of Day
12h 18m
Tomorrow will be 1m 46s shorter.
Waning Gibbous, 47% of the Moon is Illuminated
Today
Waning Gibbous
Sep 24
New
Oct 1
First Quarter
Oct 8
Full
Oct 15
Last Quarter

Today's Extremes

State Highs State Lows

Community

WunderPhotos

Upload Photos

1,753,712 photos uploaded!

WunderBlogs® & News

Nearby

Snow Depth

Station Depth Elevation
No new snow has been reported.

Earthquake Activity

City Distance Mag. Time & Date
No recent earthquake activity has been reported nearby.
Minimum magnitude displayed is 2.5.

Coastal Water Temperatures

Place Temperature
No Stations Reporting

Nearby Weather Stations